createdAt,value
2022-12-05T00:01:24.497Z,2.42
2022-12-05T00:03:53.859Z,2.43
2022-12-05T00:06:21.586Z,2.42
2022-12-05T00:08:49.460Z,2.45
2022-12-05T00:11:25.543Z,2.46
2022-12-05T00:13:54.247Z,2.47
2022-12-05T00:16:24.229Z,2.48
2022-12-05T00:18:51.571Z,2.49
2022-12-05T00:21:25.993Z,2.48
2022-12-05T00:23:54.562Z,2.51
2022-12-05T00:26:22.010Z,2.53
2022-12-05T00:28:49.626Z,2.52
2022-12-05T00:31:24.601Z,2.54
2022-12-05T00:33:52.928Z,2.57
2022-12-05T00:36:22.996Z,2.56
2022-12-05T00:38:50.562Z,2.58
2022-12-05T00:41:23.104Z,2.58
2022-12-05T00:43:51.055Z,2.58
2022-12-05T00:46:21.329Z,2.58
2022-12-05T00:48:49.262Z,2.57
2022-12-05T00:51:21.105Z,2.58
2022-12-05T00:53:48.484Z,2.57
2022-12-05T00:56:18.532Z,2.58
2022-12-05T00:58:46.629Z,2.59
2022-12-05T01:01:16.941Z,2.57
2022-12-05T01:03:45.866Z,2.60
2022-12-05T01:06:14.504Z,2.60
2022-12-05T01:08:42.646Z,2.62
2022-12-05T01:11:10.800Z,2.63
2022-12-05T01:13:38.034Z,2.62
2022-12-05T01:16:05.337Z,2.61
2022-12-05T01:18:33.839Z,2.63
2022-12-05T01:21:00.535Z,2.63
2022-12-05T01:23:27.461Z,2.62
2022-12-05T01:25:54.503Z,2.62
2022-12-05T01:28:21.526Z,2.62
2022-12-05T01:30:50.312Z,2.62
2022-12-05T01:33:18.102Z,2.62
2022-12-05T01:35:45.145Z,2.62
2022-12-05T01:38:12.922Z,2.64
2022-12-05T01:40:40.970Z,2.60
2022-12-05T01:43:26.072Z,2.64
2022-12-05T01:45:53.321Z,2.63
2022-12-05T01:48:25.913Z,2.65
2022-12-05T01:50:52.900Z,2.65
2022-12-05T01:53:20.782Z,2.66
2022-12-05T01:55:50.161Z,2.68
2022-12-05T01:58:18.028Z,2.66
2022-12-05T02:00:45.001Z,2.68
2022-12-05T02:03:18.254Z,2.66
2022-12-05T02:05:48.842Z,2.67
2022-12-05T02:08:16.293Z,2.66
2022-12-05T02:10:46.835Z,2.66
2022-12-05T02:13:33.758Z,2.66
2022-12-05T02:16:17.164Z,2.65
2022-12-05T02:19:43.395Z,2.69
2022-12-05T02:22:23.380Z,2.70
2022-12-05T02:25:14.019Z,2.71
2022-12-05T02:28:27.156Z,2.70
2022-12-05T02:30:56.322Z,2.71
2022-12-05T02:33:35.324Z,2.72
2022-12-05T02:36:07.778Z,2.74
2022-12-05T02:38:52.909Z,2.73
2022-12-05T02:41:34.811Z,2.74
2022-12-05T02:44:31.686Z,2.75
2022-12-05T02:47:00.374Z,2.78
2022-12-05T02:49:32.261Z,2.77
2022-12-05T02:52:01.422Z,2.77
2022-12-05T02:54:33.797Z,2.78
2022-12-05T02:57:01.844Z,2.80
2022-12-05T02:59:29.445Z,2.82
2022-12-05T03:01:56.832Z,2.82
2022-12-05T03:04:26.800Z,2.82
2022-12-05T03:07:12.280Z,2.86
2022-12-05T03:09:58.981Z,2.88
2022-12-05T03:12:34.070Z,2.87
2022-12-05T03:15:16.478Z,2.88
2022-12-05T03:18:15.376Z,2.92
2022-12-05T03:20:48.505Z,2.92
2022-12-05T03:23:25.483Z,2.97
2022-12-05T03:26:24.684Z,2.96
2022-12-05T03:29:15.963Z,2.99
2022-12-05T03:31:52.743Z,2.97
2022-12-05T03:34:31.240Z,3.01
2022-12-05T03:37:04.714Z,3.00
2022-12-05T03:39:35.881Z,2.99
2022-12-05T03:42:21.205Z,3.01
2022-12-05T03:45:13.875Z,3.02
2022-12-05T03:47:53.422Z,3.05
2022-12-05T03:50:25.842Z,3.04
2022-12-05T03:53:19.954Z,3.06
2022-12-05T03:55:57.291Z,3.10
2022-12-05T03:58:35.277Z,3.09
2022-12-05T04:01:05.927Z,3.10
2022-12-05T04:03:40.671Z,3.12
2022-12-05T04:06:30.838Z,3.10
2022-12-05T04:09:02.801Z,3.11
2022-12-05T04:11:34.630Z,3.12
2022-12-05T04:14:07.120Z,3.13
2022-12-05T04:17:01.679Z,3.12
2022-12-05T04:20:16.878Z,3.11
2022-12-05T04:22:44.730Z,3.11
2022-12-05T04:25:33.142Z,3.13
2022-12-05T04:28:26.453Z,3.13
2022-12-05T04:31:06.933Z,3.12
2022-12-05T04:33:39.872Z,3.13
2022-12-05T04:36:17.219Z,3.14
2022-12-05T04:38:53.443Z,3.13
2022-12-05T05:16:54.893Z,3.22
2022-12-05T05:34:49.396Z,3.28
2022-12-05T06:24:06.899Z,3.49
2022-12-05T06:35:51.636Z,3.59
2022-12-05T06:44:38.361Z,3.62
2022-12-05T06:53:16.555Z,3.69
2022-12-05T06:56:00.370Z,3.69
2022-12-05T06:58:35.205Z,3.68
2022-12-05T07:04:08.385Z,3.71
2022-12-05T07:06:50.800Z,3.72
2022-12-05T07:12:30.221Z,3.76
2022-12-05T07:15:20.093Z,3.78
2022-12-05T07:17:47.339Z,3.80
2022-12-05T07:23:04.108Z,3.80
2022-12-05T07:25:31.137Z,3.85
2022-12-05T07:33:22.132Z,3.83
2022-12-05T07:35:49.271Z,3.87
2022-12-05T07:38:16.199Z,3.88
2022-12-05T07:40:43.429Z,3.88
2022-12-05T07:43:10.924Z,3.87
2022-12-05T07:45:38.134Z,3.87
2022-12-05T07:48:05.556Z,3.89
2022-12-05T07:50:33.120Z,3.91
2022-12-05T07:53:00.054Z,3.93
2022-12-05T07:55:26.990Z,3.95
2022-12-05T07:57:54.105Z,3.94
2022-12-05T08:00:36.843Z,3.93
2022-12-05T08:03:04.281Z,3.96
2022-12-05T08:05:31.745Z,3.99
2022-12-05T08:07:59.739Z,4.00
2022-12-05T08:10:26.847Z,4.01
2022-12-05T08:12:53.707Z,4.05
2022-12-05T08:15:20.886Z,4.05
2022-12-05T08:17:47.867Z,4.06
2022-12-05T08:20:15.560Z,4.09
2022-12-05T08:22:42.690Z,4.07
2022-12-05T08:25:10.146Z,4.10
2022-12-05T08:27:37.054Z,4.11
2022-12-05T08:30:05.128Z,4.13
2022-12-05T08:32:32.273Z,4.15
2022-12-05T08:34:59.322Z,4.15
2022-12-05T08:37:26.406Z,4.16
2022-12-05T08:39:53.291Z,4.18
2022-12-05T08:42:20.301Z,4.22
2022-12-05T08:44:47.180Z,4.19
2022-12-05T08:47:14.065Z,4.22
2022-12-05T08:49:40.966Z,4.24
2022-12-05T08:52:07.936Z,4.26
2022-12-05T08:54:34.967Z,4.27
2022-12-05T08:57:01.890Z,4.30
2022-12-05T08:59:28.903Z,4.30
2022-12-05T09:01:55.764Z,4.29
2022-12-05T09:04:22.794Z,4.32
2022-12-05T09:06:49.836Z,4.33
2022-12-05T09:09:16.853Z,4.33
2022-12-05T09:11:51.120Z,4.36
2022-12-05T09:14:18.476Z,4.33
2022-12-05T09:16:47.694Z,4.35
2022-12-05T09:19:25.041Z,4.36
2022-12-05T09:21:51.903Z,4.39
2022-12-05T09:24:18.728Z,4.40
2022-12-05T09:26:46.899Z,4.40
2022-12-05T09:29:17.277Z,4.42
2022-12-05T09:31:46.539Z,4.43
2022-12-05T09:34:15.064Z,4.44
2022-12-05T09:36:42.833Z,4.46
2022-12-05T09:39:11.128Z,4.49
2022-12-05T09:42:10.032Z,4.48
2022-12-05T09:44:56.022Z,4.49
2022-12-05T09:47:44.732Z,4.49
2022-12-05T09:50:24.033Z,4.48
2022-12-05T09:53:03.190Z,4.51
2022-12-05T09:55:38.287Z,4.51
2022-12-05T09:58:16.398Z,4.54
2022-12-05T10:00:43.700Z,4.54
2022-12-05T10:03:26.432Z,4.53
2022-12-05T10:06:15.190Z,4.57
2022-12-05T10:09:19.598Z,4.59
2022-12-05T10:12:01.259Z,4.61
2022-12-05T10:14:28.116Z,4.62
2022-12-05T10:16:58.643Z,4.63
2022-12-05T10:19:42.938Z,4.65
2022-12-05T10:22:32.981Z,4.66
2022-12-05T10:25:06.863Z,4.70
2022-12-05T10:27:40.204Z,4.70
2022-12-05T10:30:14.022Z,4.70
2022-12-05T10:32:54.641Z,4.71
2022-12-05T10:35:28.587Z,4.73
2022-12-05T10:38:03.203Z,4.74
2022-12-05T10:40:38.848Z,4.76
2022-12-05T10:43:08.392Z,4.77
2022-12-05T10:45:41.967Z,4.78
2022-12-05T10:48:12.906Z,4.82
2022-12-05T10:50:42.502Z,4.84
2022-12-05T10:53:15.846Z,4.82
2022-12-05T10:56:21.634Z,4.85
2022-12-05T10:58:35.145Z,4.86
2022-12-05T11:01:10.483Z,4.89
2022-12-05T11:03:43.517Z,4.89
2022-12-05T11:06:24.155Z,4.92
2022-12-05T11:09:04.901Z,4.91
2022-12-05T11:11:34.020Z,4.89
2022-12-05T11:14:24.195Z,4.88
2022-12-05T11:16:56.898Z,4.85
2022-12-05T11:19:33.425Z,4.86
2022-12-05T11:22:01.291Z,4.89
2022-12-05T11:24:34.041Z,4.90
2022-12-05T11:27:21.403Z,4.89
2022-12-05T11:30:01.910Z,4.94
2022-12-05T11:32:32.816Z,4.94
2022-12-05T11:35:25.369Z,4.95
2022-12-05T11:38:03.910Z,4.96
2022-12-05T11:40:54.821Z,4.99
2022-12-05T11:43:24.802Z,4.99
2022-12-05T11:45:51.647Z,5.00
2022-12-05T11:48:24.227Z,5.00
2022-12-05T11:51:10.530Z,5.02
2022-12-05T11:53:50.532Z,5.00
2022-12-05T11:56:37.341Z,5.01
2022-12-05T11:59:47.764Z,5.01
2022-12-05T12:02:20.663Z,5.02
2022-12-05T12:04:55.097Z,5.02
2022-12-05T12:07:30.335Z,5.03
2022-12-05T12:10:12.209Z,5.06
2022-12-05T12:12:44.958Z,5.04
2022-12-05T12:15:36.438Z,5.07
2022-12-05T12:18:43.162Z,5.12
2022-12-05T12:21:21.484Z,5.11
2022-12-05T12:24:04.796Z,5.07
2022-12-05T12:26:44.543Z,5.09
2022-12-05T12:29:40.147Z,5.08
2022-12-05T12:32:40.836Z,5.11
2022-12-05T12:35:31.832Z,5.11
2022-12-05T12:38:29.559Z,5.11
2022-12-05T12:41:07.387Z,5.08
2022-12-05T12:44:04.584Z,5.07
2022-12-05T12:46:47.537Z,5.08
2022-12-05T12:49:51.003Z,5.08
2022-12-05T12:52:24.523Z,5.07
2022-12-05T12:55:12.151Z,5.06
2022-12-05T12:58:00.224Z,5.08
2022-12-05T13:00:48.661Z,5.10
2022-12-05T13:03:31.937Z,5.09
2022-12-05T13:05:59.986Z,5.12
2022-12-05T13:09:02.319Z,5.10
2022-12-05T13:20:30.727Z,5.05
2022-12-05T13:27:06.389Z,5.04
2022-12-05T13:32:58.757Z,4.98
2022-12-05T13:36:09.825Z,5.01
2022-12-05T13:39:20.829Z,4.92
2022-12-05T13:42:18.903Z,4.89
2022-12-05T13:45:37.663Z,4.89
2022-12-05T13:48:40.046Z,4.84
2022-12-05T13:51:10.701Z,4.86
2022-12-05T13:53:44.064Z,4.84
2022-12-05T13:56:13.874Z,4.82
2022-12-05T13:58:52.188Z,4.79
2022-12-05T14:01:25.200Z,4.80
2022-12-05T14:03:52.086Z,4.80
2022-12-05T14:06:40.040Z,4.79
2022-12-05T14:09:19.373Z,4.78
2022-12-05T14:12:11.008Z,4.80
2022-12-05T14:15:24.065Z,4.79
2022-12-05T14:17:57.896Z,4.78
2022-12-05T14:20:47.968Z,4.78
2022-12-05T14:23:20.741Z,4.79
2022-12-05T14:26:09.003Z,4.78
2022-12-05T14:28:46.228Z,4.79
2022-12-05T14:31:53.727Z,4.78
2022-12-05T14:34:22.438Z,4.78
2022-12-05T14:37:01.502Z,4.79
2022-12-05T14:39:45.140Z,4.79
2022-12-05T14:42:25.804Z,4.77
2022-12-05T14:44:56.457Z,4.76
2022-12-05T14:47:30.861Z,4.77
2022-12-05T14:50:37.249Z,4.74
2022-12-05T14:53:22.304Z,4.74
2022-12-05T14:55:54.858Z,4.73
2022-12-05T14:58:44.912Z,4.74
2022-12-05T15:01:15.161Z,4.75
2022-12-05T15:04:00.273Z,4.74
2022-12-05T15:06:27.977Z,4.74
2022-12-05T15:09:28.407Z,4.74
2022-12-05T15:11:46.128Z,4.74
2022-12-05T15:14:22.285Z,4.73
2022-12-05T15:16:52.654Z,4.74
2022-12-05T15:19:30.386Z,4.75
2022-12-05T15:22:01.010Z,4.73
2022-12-05T15:24:28.043Z,4.72
2022-12-05T15:26:57.867Z,4.71
2022-12-05T15:29:28.249Z,4.71
2022-12-05T15:31:57.193Z,4.69
2022-12-05T15:34:30.178Z,4.69
2022-12-05T15:37:04.953Z,4.69
2022-12-05T15:39:55.164Z,4.68
2022-12-05T15:42:29.233Z,4.66
2022-12-05T15:45:17.524Z,4.66
2022-12-05T15:47:48.490Z,4.65
2022-12-05T15:50:28.679Z,4.64
2022-12-05T15:53:19.310Z,4.63
2022-12-05T15:56:04.685Z,4.62
2022-12-05T15:58:42.637Z,4.57
2022-12-05T16:01:12.354Z,4.62
2022-12-05T16:04:14.231Z,4.62
2022-12-05T16:06:52.293Z,4.61
2022-12-05T16:09:22.464Z,4.57
2022-12-05T16:11:53.640Z,4.58
2022-12-05T16:14:57.838Z,4.58
2022-12-05T16:17:15.958Z,4.58
2022-12-05T16:19:43.796Z,4.58
2022-12-05T16:22:13.732Z,4.58
2022-12-05T16:24:48.700Z,4.57
2022-12-05T16:27:18.496Z,4.58
2022-12-05T16:29:45.773Z,4.60
2022-12-05T16:32:24.983Z,4.58
2022-12-05T16:34:52.527Z,4.59
2022-12-05T16:37:29.600Z,4.58
2022-12-05T16:39:57.503Z,4.59
2022-12-05T16:42:26.937Z,4.56
2022-12-05T16:45:04.019Z,4.59
2022-12-05T16:47:55.595Z,4.58
2022-12-05T16:50:22.809Z,4.62
2022-12-05T16:52:50.129Z,4.60
2022-12-05T16:55:17.490Z,4.61
2022-12-05T16:57:44.535Z,4.61
2022-12-05T17:00:15.235Z,4.62
2022-12-05T17:02:42.273Z,4.60
2022-12-05T17:05:14.134Z,4.62
2022-12-05T17:07:41.159Z,4.64
2022-12-05T17:10:08.499Z,4.64
2022-12-05T17:12:35.815Z,4.64
2022-12-05T17:15:02.814Z,4.65
2022-12-05T17:17:29.714Z,4.64
2022-12-05T17:19:56.824Z,4.64
2022-12-05T17:22:24.155Z,4.63
2022-12-05T17:24:51.066Z,4.64
2022-12-05T17:27:18.063Z,4.64
2022-12-05T17:29:45.194Z,4.66
2022-12-05T17:32:12.045Z,4.66
2022-12-05T17:34:38.954Z,4.66
2022-12-05T17:37:05.793Z,4.65
2022-12-05T17:39:32.671Z,4.65
2022-12-05T17:41:59.938Z,4.65
2022-12-05T17:44:27.021Z,4.64
2022-12-05T17:46:56.157Z,4.65
2022-12-05T17:49:23.211Z,4.62
2022-12-05T17:52:20.646Z,4.63
2022-12-05T17:54:40.926Z,4.64
2022-12-05T17:57:07.793Z,4.66
2022-12-05T17:59:34.723Z,4.66
2022-12-05T18:02:01.555Z,4.66
2022-12-05T18:04:28.546Z,4.65
2022-12-05T18:06:55.417Z,4.66
2022-12-05T18:09:22.906Z,4.66
2022-12-05T18:11:49.846Z,4.67
2022-12-05T18:14:16.718Z,4.66
2022-12-05T18:16:43.627Z,4.67
2022-12-05T18:19:10.457Z,4.68
2022-12-05T18:21:38.181Z,4.66
2022-12-05T18:24:05.261Z,4.68
2022-12-05T18:26:31.997Z,4.69
2022-12-05T18:28:59.571Z,4.71
2022-12-05T18:31:26.753Z,4.70
2022-12-05T18:33:53.706Z,4.71
2022-12-05T18:36:21.573Z,4.71
2022-12-05T18:38:57.033Z,4.72
2022-12-05T18:41:26.815Z,4.71
2022-12-05T18:43:53.961Z,4.70
2022-12-05T18:46:21.027Z,4.70
2022-12-05T18:48:49.073Z,4.71
2022-12-05T18:51:20.963Z,4.71
2022-12-05T18:53:53.039Z,4.71
2022-12-05T18:56:24.213Z,4.68
2022-12-05T18:59:00.391Z,4.69
2022-12-05T19:01:28.289Z,4.69
2022-12-05T19:03:57.578Z,4.71
2022-12-05T19:06:27.321Z,4.70
2022-12-05T19:08:55.494Z,4.69
2022-12-05T19:11:23.876Z,4.68
2022-12-05T19:13:55.064Z,4.67
2022-12-05T19:16:21.937Z,4.69
2022-12-05T19:18:55.280Z,4.69
2022-12-05T19:21:26.522Z,4.68
2022-12-05T19:23:54.125Z,4.68
2022-12-05T19:26:22.116Z,4.66
2022-12-05T19:28:49.805Z,4.66
2022-12-05T19:31:19.334Z,4.65
2022-12-05T19:33:49.262Z,4.62
2022-12-05T19:36:20.406Z,4.64
2022-12-05T19:38:49.857Z,4.64
2022-12-05T19:41:19.830Z,4.62
2022-12-05T19:43:46.976Z,4.63
2022-12-05T19:46:25.020Z,4.63
2022-12-05T19:48:53.574Z,4.60
2022-12-05T19:51:20.898Z,4.61
2022-12-05T19:53:48.697Z,4.61
2022-12-05T19:56:24.330Z,4.59
2022-12-05T19:58:52.976Z,4.59
2022-12-05T20:01:23.212Z,4.62
2022-12-05T20:03:55.729Z,4.62
2022-12-05T20:06:24.095Z,4.60
2022-12-05T20:08:52.673Z,4.60
2022-12-05T20:11:22.304Z,4.62
2022-12-05T20:13:49.116Z,4.60
2022-12-05T20:16:18.954Z,4.60
2022-12-05T20:18:46.749Z,4.63
2022-12-05T20:21:15.803Z,4.60
2022-12-05T20:23:43.138Z,4.64
2022-12-05T20:26:19.061Z,4.62
2022-12-05T20:28:46.968Z,4.62
2022-12-05T20:31:17.059Z,4.64
2022-12-05T20:33:44.986Z,4.63
2022-12-05T20:36:12.956Z,4.67
2022-12-05T20:38:40.389Z,4.65
2022-12-05T20:41:11.542Z,4.64
2022-12-05T20:43:39.109Z,4.63
2022-12-05T20:46:13.524Z,4.61
2022-12-05T20:48:41.049Z,4.63
2022-12-05T20:51:18.362Z,4.63
2022-12-05T20:53:46.036Z,4.62
2022-12-05T20:56:18.515Z,4.63
2022-12-05T20:58:50.746Z,4.63
2022-12-05T21:01:19.753Z,4.65
2022-12-05T21:03:49.899Z,4.65
2022-12-05T21:06:27.983Z,4.64
2022-12-05T21:08:55.986Z,4.65
2022-12-05T21:11:24.030Z,4.63
2022-12-05T21:13:51.258Z,4.63
2022-12-05T21:16:21.446Z,4.62
2022-12-05T21:18:48.858Z,4.62
2022-12-05T21:21:21.594Z,4.60
2022-12-05T21:23:53.848Z,4.64
2022-12-05T21:26:22.213Z,4.64
2022-12-05T21:28:49.338Z,4.64
2022-12-05T21:31:17.775Z,4.67
2022-12-05T21:33:48.861Z,4.67
2022-12-05T21:36:15.831Z,4.66
2022-12-05T21:38:42.694Z,4.68
2022-12-05T21:41:09.528Z,4.66
2022-12-05T21:43:36.950Z,4.66
2022-12-05T21:46:05.549Z,4.65
2022-12-05T21:48:33.387Z,4.65
2022-12-05T21:51:00.350Z,4.66
2022-12-05T21:53:27.391Z,4.67
2022-12-05T21:56:07.096Z,4.66
2022-12-05T21:58:38.021Z,4.68
2022-12-05T22:01:07.552Z,4.68
2022-12-05T22:03:34.763Z,4.69
2022-12-05T22:06:03.691Z,4.70
2022-12-05T22:08:32.058Z,4.70
2022-12-05T22:11:10.065Z,4.70
2022-12-05T22:13:37.172Z,4.70
2022-12-05T22:16:05.166Z,4.70
2022-12-05T22:18:32.374Z,4.71
2022-12-05T22:21:07.376Z,4.72
2022-12-05T22:23:35.293Z,4.73
2022-12-05T22:26:23.869Z,4.71
2022-12-05T22:28:51.694Z,4.74
2022-12-05T22:31:19.961Z,4.72
2022-12-05T22:33:47.794Z,4.73
2022-12-05T22:36:17.502Z,4.72
2022-12-05T22:38:49.761Z,4.73
2022-12-05T22:41:19.651Z,4.73
2022-12-05T22:43:48.326Z,4.73
2022-12-05T22:46:20.252Z,4.74
2022-12-05T22:48:48.645Z,4.72
2022-12-05T22:51:16.202Z,4.73
2022-12-05T22:53:43.523Z,4.73
2022-12-05T22:56:13.064Z,4.72
2022-12-05T22:58:40.016Z,4.72
2022-12-05T23:01:21.470Z,4.72
2022-12-05T23:03:50.686Z,4.72
2022-12-05T23:06:18.612Z,4.72
2022-12-05T23:08:48.120Z,4.71
2022-12-05T23:11:16.596Z,4.72
2022-12-05T23:13:44.472Z,4.71
2022-12-05T23:16:15.165Z,4.72
2022-12-05T23:18:49.053Z,4.73
2022-12-05T23:21:31.276Z,4.73
2022-12-05T23:24:00.662Z,4.73
2022-12-05T23:26:30.381Z,4.73
2022-12-05T23:28:57.445Z,4.72
2022-12-05T23:31:25.581Z,4.71
2022-12-05T23:33:52.586Z,4.70
2022-12-05T23:36:20.677Z,4.68
2022-12-05T23:38:48.287Z,4.69
2022-12-05T23:41:18.218Z,4.68
2022-12-05T23:43:46.150Z,4.68
2022-12-05T23:46:15.079Z,4.68
2022-12-05T23:48:42.203Z,4.68
2022-12-05T23:51:15.034Z,4.67
2022-12-05T23:53:43.486Z,4.68
2022-12-05T23:56:15.836Z,4.67
2022-12-05T23:58:43.510Z,4.69
